sensor_id;sensor_type;location;lat;lon;timestamp;temperature;humidity
41628;DHT22;27321;50.816;6.054;2023-04-21T00:00:37;9.10;74.30
41628;DHT22;27321;50.816;6.054;2023-04-21T00:03:39;9.20;74.90
41628;DHT22;27321;50.816;6.054;2023-04-21T00:06:41;9.30;74.40
41628;DHT22;27321;50.816;6.054;2023-04-21T00:09:42;9.30;74.30
41628;DHT22;27321;50.816;6.054;2023-04-21T00:12:43;9.30;74.20
41628;DHT22;27321;50.816;6.054;2023-04-21T00:15:44;9.30;74.70
41628;DHT22;27321;50.816;6.054;2023-04-21T00:18:46;9.30;74.40
41628;DHT22;27321;50.816;6.054;2023-04-21T00:21:47;9.30;74.60
41628;DHT22;27321;50.816;6.054;2023-04-21T00:24:48;9.30;74.50
41628;DHT22;27321;50.816;6.054;2023-04-21T00:27:49;9.30;74.70
41628;DHT22;27321;50.816;6.054;2023-04-21T00:30:50;9.30;74.70
41628;DHT22;27321;50.816;6.054;2023-04-21T00:33:53;9.20;74.90
41628;DHT22;27321;50.816;6.054;2023-04-21T00:36:56;9.10;74.90
41628;DHT22;27321;50.816;6.054;2023-04-21T00:39:57;9.00;75.10
41628;DHT22;27321;50.816;6.054;2023-04-21T00:42:58;8.90;76.00
41628;DHT22;27321;50.816;6.054;2023-04-21T00:45:59;8.90;75.90
41628;DHT22;27321;50.816;6.054;2023-04-21T00:49:04;9.00;76.00
41628;DHT22;27321;50.816;6.054;2023-04-21T00:52:06;9.10;75.90
41628;DHT22;27321;50.816;6.054;2023-04-21T00:55:08;9.10;75.40
41628;DHT22;27321;50.816;6.054;2023-04-21T00:58:10;9.10;75.50
41628;DHT22;27321;50.816;6.054;2023-04-21T01:01:12;9.10;75.50
41628;DHT22;27321;50.816;6.054;2023-04-21T01:04:13;9.00;75.50
41628;DHT22;27321;50.816;6.054;2023-04-21T01:07:14;9.00;75.20
41628;DHT22;27321;50.816;6.054;2023-04-21T01:10:16;9.00;75.20
41628;DHT22;27321;50.816;6.054;2023-04-21T01:13:19;9.00;75.90
41628;DHT22;27321;50.816;6.054;2023-04-21T01:16:23;9.10;75.40
41628;DHT22;27321;50.816;6.054;2023-04-21T01:19:29;9.10;75.20
41628;DHT22;27321;50.816;6.054;2023-04-21T01:22:36;9.20;75.30
41628;DHT22;27321;50.816;6.054;2023-04-21T01:25:38;9.30;75.30
41628;DHT22;27321;50.816;6.054;2023-04-21T01:28:39;9.30;75.10
41628;DHT22;27321;50.816;6.054;2023-04-21T01:31:41;9.30;75.20
41628;DHT22;27321;50.816;6.054;2023-04-21T01:34:42;9.40;74.60
41628;DHT22;27321;50.816;6.054;2023-04-21T01:37:44;9.30;74.80
41628;DHT22;27321;50.816;6.054;2023-04-21T01:40:48;9.40;75.20
41628;DHT22;27321;50.816;6.054;2023-04-21T01:43:51;9.50;74.70
41628;DHT22;27321;50.816;6.054;2023-04-21T01:46:52;9.50;74.60
41628;DHT22;27321;50.816;6.054;2023-04-21T01:49:54;9.50;74.70
41628;DHT22;27321;50.816;6.054;2023-04-21T01:52:55;9.50;74.60
41628;DHT22;27321;50.816;6.054;2023-04-21T01:55:56;9.50;74.70
41628;DHT22;27321;50.816;6.054;2023-04-21T01:58:57;9.60;74.40
41628;DHT22;27321;50.816;6.054;2023-04-21T02:01:58;9.60;74.20
41628;DHT22;27321;50.816;6.054;2023-04-21T02:04:59;9.60;74.30
41628;DHT22;27321;50.816;6.054;2023-04-21T02:08:01;9.60;74.30
41628;DHT22;27321;50.816;6.054;2023-04-21T02:11:05;9.60;74.50
41628;DHT22;27321;50.816;6.054;2023-04-21T02:14:06;9.70;74.40
41628;DHT22;27321;50.816;6.054;2023-04-21T02:17:10;9.60;74.20
41628;DHT22;27321;50.816;6.054;2023-04-21T02:20:11;9.60;74.50
41628;DHT22;27321;50.816;6.054;2023-04-21T02:23:13;9.60;74.00
41628;DHT22;27321;50.816;6.054;2023-04-21T02:26:14;9.60;74.00
41628;DHT22;27321;50.816;6.054;2023-04-21T02:29:15;9.50;73.80
41628;DHT22;27321;50.816;6.054;2023-04-21T02:32:16;9.50;73.60
41628;DHT22;27321;50.816;6.054;2023-04-21T02:35:18;9.30;74.20
41628;DHT22;27321;50.816;6.054;2023-04-21T02:38:19;9.40;73.90
41628;DHT22;27321;50.816;6.054;2023-04-21T02:41:20;9.30;73.40
41628;DHT22;27321;50.816;6.054;2023-04-21T02:44:22;9.20;73.70
41628;DHT22;27321;50.816;6.054;2023-04-21T02:47:23;9.20;73.90
41628;DHT22;27321;50.816;6.054;2023-04-21T02:50:25;9.10;74.10
41628;DHT22;27321;50.816;6.054;2023-04-21T02:53:26;9.10;73.80
41628;DHT22;27321;50.816;6.054;2023-04-21T02:56:27;9.10;74.10
41628;DHT22;27321;50.816;6.054;2023-04-21T02:59:28;9.10;73.70
41628;DHT22;27321;50.816;6.054;2023-04-21T03:02:29;9.00;74.40
41628;DHT22;27321;50.816;6.054;2023-04-21T03:05:30;8.90;74.50
41628;DHT22;27321;50.816;6.054;2023-04-21T03:08:33;8.90;74.60
41628;DHT22;27321;50.816;6.054;2023-04-21T03:11:33;8.80;75.20
41628;DHT22;27321;50.816;6.054;2023-04-21T03:14:35;8.90;74.80
41628;DHT22;27321;50.816;6.054;2023-04-21T03:17:36;9.00;74.60
41628;DHT22;27321;50.816;6.054;2023-04-21T03:20:37;8.90;74.50
41628;DHT22;27321;50.816;6.054;2023-04-21T03:23:38;8.90;74.50
41628;DHT22;27321;50.816;6.054;2023-04-21T03:26:39;8.90;74.50
41628;DHT22;27321;50.816;6.054;2023-04-21T03:29:42;8.90;74.30
41628;DHT22;27321;50.816;6.054;2023-04-21T03:32:44;8.90;74.40
41628;DHT22;27321;50.816;6.054;2023-04-21T03:35:45;8.90;74.10
41628;DHT22;27321;50.816;6.054;2023-04-21T03:38:46;8.80;74.30
41628;DHT22;27321;50.816;6.054;2023-04-21T03:41:47;8.90;73.80
41628;DHT22;27321;50.816;6.054;2023-04-21T03:44:48;8.90;73.50
41628;DHT22;27321;50.816;6.054;2023-04-21T03:47:53;8.80;73.80
41628;DHT22;27321;50.816;6.054;2023-04-21T03:50:55;8.80;74.00
41628;DHT22;27321;50.816;6.054;2023-04-21T03:53:56;8.80;74.00
41628;DHT22;27321;50.816;6.054;2023-04-21T03:56:57;8.80;74.20
41628;DHT22;27321;50.816;6.054;2023-04-21T03:59:58;8.70;74.00
41628;DHT22;27321;50.816;6.054;2023-04-21T04:02:59;8.70;73.90
41628;DHT22;27321;50.816;6.054;2023-04-21T04:06:00;8.60;74.10
41628;DHT22;27321;50.816;6.054;2023-04-21T04:09:02;8.60;74.40
41628;DHT22;27321;50.816;6.054;2023-04-21T04:12:04;8.60;74.60
41628;DHT22;27321;50.816;6.054;2023-04-21T04:15:05;8.60;74.60
41628;DHT22;27321;50.816;6.054;2023-04-21T04:18:07;8.60;74.40
41628;DHT22;27321;50.816;6.054;2023-04-21T04:21:08;8.50;74.70
41628;DHT22;27321;50.816;6.054;2023-04-21T04:24:09;8.50;75.30
41628;DHT22;27321;50.816;6.054;2023-04-21T04:27:11;8.50;75.30
41628;DHT22;27321;50.816;6.054;2023-04-21T04:30:13;8.50;75.40
41628;DHT22;27321;50.816;6.054;2023-04-21T04:33:14;8.40;75.20
41628;DHT22;27321;50.816;6.054;2023-04-21T04:36:15;8.50;75.00
41628;DHT22;27321;50.816;6.054;2023-04-21T04:39:16;8.50;74.80
41628;DHT22;27321;50.816;6.054;2023-04-21T04:42:17;8.40;74.90
41628;DHT22;27321;50.816;6.054;2023-04-21T04:45:19;8.40;75.40
41628;DHT22;27321;50.816;6.054;2023-04-21T04:48:21;8.40;75.40
41628;DHT22;27321;50.816;6.054;2023-04-21T04:51:24;8.40;75.20
41628;DHT22;27321;50.816;6.054;2023-04-21T04:54:25;8.30;75.30
41628;DHT22;27321;50.816;6.054;2023-04-21T04:57:26;8.30;75.50
41628;DHT22;27321;50.816;6.054;2023-04-21T05:00:28;8.30;75.60
41628;DHT22;27321;50.816;6.054;2023-04-21T05:03:28;8.30;75.40
41628;DHT22;27321;50.816;6.054;2023-04-21T05:06:29;8.30;75.50
41628;DHT22;27321;50.816;6.054;2023-04-21T05:09:32;8.30;75.80
41628;DHT22;27321;50.816;6.054;2023-04-21T05:12:33;8.30;75.60
41628;DHT22;27321;50.816;6.054;2023-04-21T05:15:34;8.30;75.70
41628;DHT22;27321;50.816;6.054;2023-04-21T05:18:36;8.30;75.80
41628;DHT22;27321;50.816;6.054;2023-04-21T05:21:37;8.40;75.20
41628;DHT22;27321;50.816;6.054;2023-04-21T05:24:40;8.40;75.60
41628;DHT22;27321;50.816;6.054;2023-04-21T05:27:42;8.40;75.40
41628;DHT22;27321;50.816;6.054;2023-04-21T05:30:43;8.50;75.80
41628;DHT22;27321;50.816;6.054;2023-04-21T05:33:44;8.60;75.60
41628;DHT22;27321;50.816;6.054;2023-04-21T05:36:45;8.70;75.30
41628;DHT22;27321;50.816;6.054;2023-04-21T05:39:48;8.70;75.20
41628;DHT22;27321;50.816;6.054;2023-04-21T05:42:49;8.80;75.20
41628;DHT22;27321;50.816;6.054;2023-04-21T05:45:50;8.90;75.20
41628;DHT22;27321;50.816;6.054;2023-04-21T05:48:51;8.90;74.90
41628;DHT22;27321;50.816;6.054;2023-04-21T05:51:52;9.00;74.60
41628;DHT22;27321;50.816;6.054;2023-04-21T05:54:53;9.00;74.90
41628;DHT22;27321;50.816;6.054;2023-04-21T05:57:54;9.00;74.40
41628;DHT22;27321;50.816;6.054;2023-04-21T06:00:55;9.00;74.30
41628;DHT22;27321;50.816;6.054;2023-04-21T06:03:56;9.00;74.50
41628;DHT22;27321;50.816;6.054;2023-04-21T06:07:02;8.90;74.20
41628;DHT22;27321;50.816;6.054;2023-04-21T06:10:05;9.00;74.50
41628;DHT22;27321;50.816;6.054;2023-04-21T06:13:06;8.90;74.30
41628;DHT22;27321;50.816;6.054;2023-04-21T06:16:07;9.00;74.60
41628;DHT22;27321;50.816;6.054;2023-04-21T06:19:08;9.10;74.80
41628;DHT22;27321;50.816;6.054;2023-04-21T06:22:09;9.10;74.10
41628;DHT22;27321;50.816;6.054;2023-04-21T06:25:10;9.10;74.30
41628;DHT22;27321;50.816;6.054;2023-04-21T06:28:11;9.10;74.30
41628;DHT22;27321;50.816;6.054;2023-04-21T06:31:12;9.10;74.40
41628;DHT22;27321;50.816;6.054;2023-04-21T06:34:15;9.10;74.20
41628;DHT22;27321;50.816;6.054;2023-04-21T06:37:17;9.20;74.40
41628;DHT22;27321;50.816;6.054;2023-04-21T06:40:18;9.30;74.20
41628;DHT22;27321;50.816;6.054;2023-04-21T06:43:19;9.30;73.70
41628;DHT22;27321;50.816;6.054;2023-04-21T06:46:20;9.30;73.70
41628;DHT22;27321;50.816;6.054;2023-04-21T06:49:21;9.40;73.80
41628;DHT22;27321;50.816;6.054;2023-04-21T06:52:22;9.30;73.70
41628;DHT22;27321;50.816;6.054;2023-04-21T06:55:23;9.40;73.60
41628;DHT22;27321;50.816;6.054;2023-04-21T06:58:24;9.40;74.00
41628;DHT22;27321;50.816;6.054;2023-04-21T07:01:26;9.50;74.10
41628;DHT22;27321;50.816;6.054;2023-04-21T07:04:27;9.50;74.10
41628;DHT22;27321;50.816;6.054;2023-04-21T07:07:31;9.60;74.00
41628;DHT22;27321;50.816;6.054;2023-04-21T07:10:32;9.70;73.50
41628;DHT22;27321;50.816;6.054;2023-04-21T07:13:33;9.80;73.80
41628;DHT22;27321;50.816;6.054;2023-04-21T07:16:34;9.80;74.00
41628;DHT22;27321;50.816;6.054;2023-04-21T07:19:35;9.90;73.60
41628;DHT22;27321;50.816;6.054;2023-04-21T07:22:36;9.90;73.80
41628;DHT22;27321;50.816;6.054;2023-04-21T07:25:38;9.90;74.10
41628;DHT22;27321;50.816;6.054;2023-04-21T07:28:38;9.90;73.80
41628;DHT22;27321;50.816;6.054;2023-04-21T07:31:42;9.80;74.40
41628;DHT22;27321;50.816;6.054;2023-04-21T07:34:44;9.90;74.60
41628;DHT22;27321;50.816;6.054;2023-04-21T07:37:46;10.00;74.80
41628;DHT22;27321;50.816;6.054;2023-04-21T07:40:47;10.10;74.00
41628;DHT22;27321;50.816;6.054;2023-04-21T07:43:48;10.10;74.00
41628;DHT22;27321;50.816;6.054;2023-04-21T07:46:49;10.00;73.90
41628;DHT22;27321;50.816;6.054;2023-04-21T07:49:50;10.10;74.70
41628;DHT22;27321;50.816;6.054;2023-04-21T07:52:51;9.90;74.20
41628;DHT22;27321;50.816;6.054;2023-04-21T07:55:52;10.00;74.30
41628;DHT22;27321;50.816;6.054;2023-04-21T07:58:53;10.00;74.20
41628;DHT22;27321;50.816;6.054;2023-04-21T08:01:54;10.10;73.20
41628;DHT22;27321;50.816;6.054;2023-04-21T08:04:56;10.10;73.30
41628;DHT22;27321;50.816;6.054;2023-04-21T08:07:57;10.30;73.10
41628;DHT22;27321;50.816;6.054;2023-04-21T08:10:58;10.50;72.90
41628;DHT22;27321;50.816;6.054;2023-04-21T08:13:59;10.50;71.80
41628;DHT22;27321;50.816;6.054;2023-04-21T08:17:00;10.60;71.80
41628;DHT22;27321;50.816;6.054;2023-04-21T08:20:01;10.70;71.60
41628;DHT22;27321;50.816;6.054;2023-04-21T08:23:02;10.80;71.30
41628;DHT22;27321;50.816;6.054;2023-04-21T08:26:03;10.80;71.20
41628;DHT22;27321;50.816;6.054;2023-04-21T08:29:04;11.00;71.00
41628;DHT22;27321;50.816;6.054;2023-04-21T08:32:06;11.00;70.00
41628;DHT22;27321;50.816;6.054;2023-04-21T08:35:07;11.10;69.40
41628;DHT22;27321;50.816;6.054;2023-04-21T08:38:09;11.10;69.90
41628;DHT22;27321;50.816;6.054;2023-04-21T08:41:10;11.30;69.60
41628;DHT22;27321;50.816;6.054;2023-04-21T08:44:12;11.30;68.80
41628;DHT22;27321;50.816;6.054;2023-04-21T08:47:14;11.30;69.70
41628;DHT22;27321;50.816;6.054;2023-04-21T08:50:15;11.30;70.20
41628;DHT22;27321;50.816;6.054;2023-04-21T08:53:16;11.50;69.80
41628;DHT22;27321;50.816;6.054;2023-04-21T08:56:17;11.50;70.00
41628;DHT22;27321;50.816;6.054;2023-04-21T08:59:18;11.60;69.50
41628;DHT22;27321;50.816;6.054;2023-04-21T09:02:19;11.70;69.50
41628;DHT22;27321;50.816;6.054;2023-04-21T09:05:29;11.90;68.40
41628;DHT22;27321;50.816;6.054;2023-04-21T09:08:32;11.90;67.90
41628;DHT22;27321;50.816;6.054;2023-04-21T09:11:34;11.90;67.00
41628;DHT22;27321;50.816;6.054;2023-04-21T09:14:35;12.00;67.20
41628;DHT22;27321;50.816;6.054;2023-04-21T09:17:36;12.10;65.90
41628;DHT22;27321;50.816;6.054;2023-04-21T09:20:47;12.10;66.30
41628;DHT22;27321;50.816;6.054;2023-04-21T09:23:51;12.20;67.00
41628;DHT22;27321;50.816;6.054;2023-04-21T09:26:52;12.30;65.90
41628;DHT22;27321;50.816;6.054;2023-04-21T09:29:53;12.40;66.20
41628;DHT22;27321;50.816;6.054;2023-04-21T09:32:56;12.40;65.30
41628;DHT22;27321;50.816;6.054;2023-04-21T09:36:00;12.50;65.80
41628;DHT22;27321;50.816;6.054;2023-04-21T09:39:02;12.50;66.40
41628;DHT22;27321;50.816;6.054;2023-04-21T09:42:04;12.50;66.00
41628;DHT22;27321;50.816;6.054;2023-04-21T09:45:06;12.50;65.30
41628;DHT22;27321;50.816;6.054;2023-04-21T09:48:12;12.50;64.70
41628;DHT22;27321;50.816;6.054;2023-04-21T09:51:15;12.50;65.50
41628;DHT22;27321;50.816;6.054;2023-04-21T09:54:19;12.60;66.40
41628;DHT22;27321;50.816;6.054;2023-04-21T09:57:24;12.70;65.20
41628;DHT22;27321;50.816;6.054;2023-04-21T10:00:27;12.80;63.90
41628;DHT22;27321;50.816;6.054;2023-04-21T10:03:29;12.90;65.90
41628;DHT22;27321;50.816;6.054;2023-04-21T10:06:31;12.90;64.20
41628;DHT22;27321;50.816;6.054;2023-04-21T10:12:57;13.10;65.00
41628;DHT22;27321;50.816;6.054;2023-04-21T10:19:25;13.20;63.90
41628;DHT22;27321;50.816;6.054;2023-04-21T10:25:28;13.40;64.50
41628;DHT22;27321;50.816;6.054;2023-04-21T10:28:39;13.40;62.10
41628;DHT22;27321;50.816;6.054;2023-04-21T10:31:52;13.40;62.60
41628;DHT22;27321;50.816;6.054;2023-04-21T10:34:55;13.50;62.50
41628;DHT22;27321;50.816;6.054;2023-04-21T10:37:57;13.50;60.90
41628;DHT22;27321;50.816;6.054;2023-04-21T10:41:27;13.50;61.20
41628;DHT22;27321;50.816;6.054;2023-04-21T10:44:32;13.60;61.80
41628;DHT22;27321;50.816;6.054;2023-04-21T10:47:42;13.60;59.90
41628;DHT22;27321;50.816;6.054;2023-04-21T10:50:48;13.70;61.10
41628;DHT22;27321;50.816;6.054;2023-04-21T10:53:49;13.80;61.80
41628;DHT22;27321;50.816;6.054;2023-04-21T10:56:51;13.90;61.50
41628;DHT22;27321;50.816;6.054;2023-04-21T10:59:53;13.90;62.60
41628;DHT22;27321;50.816;6.054;2023-04-21T11:02:55;13.90;61.50
41628;DHT22;27321;50.816;6.054;2023-04-21T11:06:13;13.90;61.20
41628;DHT22;27321;50.816;6.054;2023-04-21T11:09:15;13.80;61.30
41628;DHT22;27321;50.816;6.054;2023-04-21T11:12:17;13.90;61.60
41628;DHT22;27321;50.816;6.054;2023-04-21T11:15:18;13.90;61.50
41628;DHT22;27321;50.816;6.054;2023-04-21T11:18:19;13.90;61.40
41628;DHT22;27321;50.816;6.054;2023-04-21T11:21:20;14.00;61.00
41628;DHT22;27321;50.816;6.054;2023-04-21T11:24:22;14.00;61.30
41628;DHT22;27321;50.816;6.054;2023-04-21T11:27:26;14.10;62.20
41628;DHT22;27321;50.816;6.054;2023-04-21T11:30:32;14.10;62.20
41628;DHT22;27321;50.816;6.054;2023-04-21T11:33:37;14.10;62.80
41628;DHT22;27321;50.816;6.054;2023-04-21T11:36:43;14.10;62.90
41628;DHT22;27321;50.816;6.054;2023-04-21T11:39:45;14.30;62.70
41628;DHT22;27321;50.816;6.054;2023-04-21T11:42:47;14.30;62.80
41628;DHT22;27321;50.816;6.054;2023-04-21T11:45:49;14.40;62.20
41628;DHT22;27321;50.816;6.054;2023-04-21T11:49:01;14.50;62.20
41628;DHT22;27321;50.816;6.054;2023-04-21T11:52:06;14.50;62.10
41628;DHT22;27321;50.816;6.054;2023-04-21T11:55:13;14.50;60.70
41628;DHT22;27321;50.816;6.054;2023-04-21T11:58:20;14.50;59.50
41628;DHT22;27321;50.816;6.054;2023-04-21T12:01:21;14.50;60.40
41628;DHT22;27321;50.816;6.054;2023-04-21T12:04:24;14.60;60.30
41628;DHT22;27321;50.816;6.054;2023-04-21T12:07:25;14.60;60.00
41628;DHT22;27321;50.816;6.054;2023-04-21T12:10:28;14.70;58.90
41628;DHT22;27321;50.816;6.054;2023-04-21T12:13:30;14.80;59.10
41628;DHT22;27321;50.816;6.054;2023-04-21T12:16:31;14.90;58.60
41628;DHT22;27321;50.816;6.054;2023-04-21T12:19:37;14.90;57.60
41628;DHT22;27321;50.816;6.054;2023-04-21T12:22:40;15.00;57.70
41628;DHT22;27321;50.816;6.054;2023-04-21T12:25:42;15.00;57.80
41628;DHT22;27321;50.816;6.054;2023-04-21T12:28:44;15.10;57.50
41628;DHT22;27321;50.816;6.054;2023-04-21T12:31:48;15.10;57.00
41628;DHT22;27321;50.816;6.054;2023-04-21T12:34:49;15.00;57.20
41628;DHT22;27321;50.816;6.054;2023-04-21T12:37:50;15.00;57.30
41628;DHT22;27321;50.816;6.054;2023-04-21T12:40:51;15.10;58.80
41628;DHT22;27321;50.816;6.054;2023-04-21T12:43:52;15.30;58.10
41628;DHT22;27321;50.816;6.054;2023-04-21T12:46:53;15.40;56.70
41628;DHT22;27321;50.816;6.054;2023-04-21T12:49:54;15.30;55.40
41628;DHT22;27321;50.816;6.054;2023-04-21T12:52:55;15.30;55.60
41628;DHT22;27321;50.816;6.054;2023-04-21T12:55:56;15.40;54.10
41628;DHT22;27321;50.816;6.054;2023-04-21T12:58:57;15.40;53.70
41628;DHT22;27321;50.816;6.054;2023-04-21T13:01:58;15.50;54.10
41628;DHT22;27321;50.816;6.054;2023-04-21T13:04:59;15.80;53.00
41628;DHT22;27321;50.816;6.054;2023-04-21T13:08:00;16.00;52.30
41628;DHT22;27321;50.816;6.054;2023-04-21T13:11:05;16.10;50.90
41628;DHT22;27321;50.816;6.054;2023-04-21T13:14:06;16.20;51.80
41628;DHT22;27321;50.816;6.054;2023-04-21T13:17:07;16.30;49.60
41628;DHT22;27321;50.816;6.054;2023-04-21T13:20:09;16.30;50.30
41628;DHT22;27321;50.816;6.054;2023-04-21T13:23:10;16.30;51.00
41628;DHT22;27321;50.816;6.054;2023-04-21T13:26:14;16.30;49.40
41628;DHT22;27321;50.816;6.054;2023-04-21T13:29:15;16.30;50.70
41628;DHT22;27321;50.816;6.054;2023-04-21T13:32:16;16.30;50.30
41628;DHT22;27321;50.816;6.054;2023-04-21T13:35:17;16.40;48.30
41628;DHT22;27321;50.816;6.054;2023-04-21T13:38:19;16.40;48.90
41628;DHT22;27321;50.816;6.054;2023-04-21T13:41:21;16.50;49.20
41628;DHT22;27321;50.816;6.054;2023-04-21T13:44:22;16.50;50.10
41628;DHT22;27321;50.816;6.054;2023-04-21T13:47:23;16.50;49.50
41628;DHT22;27321;50.816;6.054;2023-04-21T13:50:24;16.50;48.50
41628;DHT22;27321;50.816;6.054;2023-04-21T13:53:25;16.50;48.10
41628;DHT22;27321;50.816;6.054;2023-04-21T13:56:26;16.60;49.30
41628;DHT22;27321;50.816;6.054;2023-04-21T13:59:27;16.60;47.90
41628;DHT22;27321;50.816;6.054;2023-04-21T14:02:28;16.70;47.60
41628;DHT22;27321;50.816;6.054;2023-04-21T14:05:30;16.70;47.40
41628;DHT22;27321;50.816;6.054;2023-04-21T14:08:31;16.60;47.50
41628;DHT22;27321;50.816;6.054;2023-04-21T14:11:32;16.60;48.10
41628;DHT22;27321;50.816;6.054;2023-04-21T14:14:33;16.60;48.50
41628;DHT22;27321;50.816;6.054;2023-04-21T14:17:34;16.70;49.60
41628;DHT22;27321;50.816;6.054;2023-04-21T14:20:35;16.90;48.90
41628;DHT22;27321;50.816;6.054;2023-04-21T14:23:36;17.00;47.00
41628;DHT22;27321;50.816;6.054;2023-04-21T14:26:37;17.10;46.80
41628;DHT22;27321;50.816;6.054;2023-04-21T14:29:38;17.10;46.70
41628;DHT22;27321;50.816;6.054;2023-04-21T14:32:39;17.20;47.80
41628;DHT22;27321;50.816;6.054;2023-04-21T14:35:44;17.30;45.20
41628;DHT22;27321;50.816;6.054;2023-04-21T14:38:45;17.40;44.90
41628;DHT22;27321;50.816;6.054;2023-04-21T14:41:47;17.50;44.10
41628;DHT22;27321;50.816;6.054;2023-04-21T14:44:48;17.50;44.60
41628;DHT22;27321;50.816;6.054;2023-04-21T14:47:49;17.50;43.80
41628;DHT22;27321;50.816;6.054;2023-04-21T14:50:50;17.30;42.80
41628;DHT22;27321;50.816;6.054;2023-04-21T14:53:51;17.30;42.30
41628;DHT22;27321;50.816;6.054;2023-04-21T14:56:52;17.20;42.40
41628;DHT22;27321;50.816;6.054;2023-04-21T14:59:53;17.10;42.80
41628;DHT22;27321;50.816;6.054;2023-04-21T15:02:54;17.10;42.50
41628;DHT22;27321;50.816;6.054;2023-04-21T15:05:55;17.20;43.20
41628;DHT22;27321;50.816;6.054;2023-04-21T15:08:56;17.30;42.90
41628;DHT22;27321;50.816;6.054;2023-04-21T15:11:57;17.30;42.50
41628;DHT22;27321;50.816;6.054;2023-04-21T15:14:58;17.20;42.80
41628;DHT22;27321;50.816;6.054;2023-04-21T15:17:59;17.20;42.90
41628;DHT22;27321;50.816;6.054;2023-04-21T15:21:00;17.10;43.70
41628;DHT22;27321;50.816;6.054;2023-04-21T15:24:02;17.10;43.10
41628;DHT22;27321;50.816;6.054;2023-04-21T15:27:03;17.10;43.90
41628;DHT22;27321;50.816;6.054;2023-04-21T15:30:04;17.20;44.40
41628;DHT22;27321;50.816;6.054;2023-04-21T15:33:06;17.40;44.20
41628;DHT22;27321;50.816;6.054;2023-04-21T15:36:07;17.60;45.40
41628;DHT22;27321;50.816;6.054;2023-04-21T15:39:08;17.70;43.20
41628;DHT22;27321;50.816;6.054;2023-04-21T15:42:13;17.70;43.30
41628;DHT22;27321;50.816;6.054;2023-04-21T15:45:14;17.80;43.70
41628;DHT22;27321;50.816;6.054;2023-04-21T15:48:18;17.80;43.10
41628;DHT22;27321;50.816;6.054;2023-04-21T15:51:19;17.80;43.40
41628;DHT22;27321;50.816;6.054;2023-04-21T16:35:38;15.70;56.50
41628;DHT22;27321;50.816;6.054;2023-04-21T16:38:39;15.80;57.90
41628;DHT22;27321;50.816;6.054;2023-04-21T16:41:40;15.90;59.70
41628;DHT22;27321;50.816;6.054;2023-04-21T16:44:41;16.00;60.50
41628;DHT22;27321;50.816;6.054;2023-04-21T16:47:42;16.10;60.40
41628;DHT22;27321;50.816;6.054;2023-04-21T16:50:43;16.10;58.70
41628;DHT22;27321;50.816;6.054;2023-04-21T16:53:45;16.10;58.50
41628;DHT22;27321;50.816;6.054;2023-04-21T16:56:46;16.10;58.00
41628;DHT22;27321;50.816;6.054;2023-04-21T16:59:47;16.10;57.60
41628;DHT22;27321;50.816;6.054;2023-04-21T17:02:48;16.10;57.10
41628;DHT22;27321;50.816;6.054;2023-04-21T17:05:49;16.10;57.70
41628;DHT22;27321;50.816;6.054;2023-04-21T17:08:50;16.10;57.00
41628;DHT22;27321;50.816;6.054;2023-04-21T17:11:59;16.00;57.30
41628;DHT22;27321;50.816;6.054;2023-04-21T17:15:00;16.00;57.70
41628;DHT22;27321;50.816;6.054;2023-04-21T17:18:01;15.90;58.00
41628;DHT22;27321;50.816;6.054;2023-04-21T17:21:02;15.90;57.80
41628;DHT22;27321;50.816;6.054;2023-04-21T17:24:05;15.80;58.30
41628;DHT22;27321;50.816;6.054;2023-04-21T17:27:06;15.70;58.40
41628;DHT22;27321;50.816;6.054;2023-04-21T17:30:08;15.70;58.70
41628;DHT22;27321;50.816;6.054;2023-04-21T17:33:09;15.80;58.50
41628;DHT22;27321;50.816;6.054;2023-04-21T17:36:10;15.80;58.10
41628;DHT22;27321;50.816;6.054;2023-04-21T17:39:11;15.80;58.10
41628;DHT22;27321;50.816;6.054;2023-04-21T17:42:13;15.80;58.60
41628;DHT22;27321;50.816;6.054;2023-04-21T17:45:14;15.90;58.80
41628;DHT22;27321;50.816;6.054;2023-04-21T17:48:15;15.80;58.00
41628;DHT22;27321;50.816;6.054;2023-04-21T17:51:16;15.70;58.00
41628;DHT22;27321;50.816;6.054;2023-04-21T17:54:18;15.60;58.40
41628;DHT22;27321;50.816;6.054;2023-04-21T17:57:19;15.70;58.50
41628;DHT22;27321;50.816;6.054;2023-04-21T18:00:20;15.70;58.50
41628;DHT22;27321;50.816;6.054;2023-04-21T18:03:21;15.80;58.40
41628;DHT22;27321;50.816;6.054;2023-04-21T18:06:22;15.90;58.60
41628;DHT22;27321;50.816;6.054;2023-04-21T18:09:23;15.90;58.70
41628;DHT22;27321;50.816;6.054;2023-04-21T18:12:25;15.90;59.50
41628;DHT22;27321;50.816;6.054;2023-04-21T18:15:26;15.90;58.60
41628;DHT22;27321;50.816;6.054;2023-04-21T18:18:27;15.90;58.50
41628;DHT22;27321;50.816;6.054;2023-04-21T18:21:28;15.90;58.50
41628;DHT22;27321;50.816;6.054;2023-04-21T18:24:29;15.80;58.50
41628;DHT22;27321;50.816;6.054;2023-04-21T18:27:30;15.80;59.00
41628;DHT22;27321;50.816;6.054;2023-04-21T18:30:31;15.70;61.20
41628;DHT22;27321;50.816;6.054;2023-04-21T18:33:32;15.50;62.70
41628;DHT22;27321;50.816;6.054;2023-04-21T18:36:33;15.00;63.90
41628;DHT22;27321;50.816;6.054;2023-04-21T18:39:35;14.70;64.50
41628;DHT22;27321;50.816;6.054;2023-04-21T18:42:36;14.50;65.50
41628;DHT22;27321;50.816;6.054;2023-04-21T18:45:37;14.30;66.10
41628;DHT22;27321;50.816;6.054;2023-04-21T18:48:38;14.10;65.40
41628;DHT22;27321;50.816;6.054;2023-04-21T18:51:39;13.80;66.90
41628;DHT22;27321;50.816;6.054;2023-04-21T18:54:40;13.70;67.50
41628;DHT22;27321;50.816;6.054;2023-04-21T18:57:41;13.60;66.70
41628;DHT22;27321;50.816;6.054;2023-04-21T19:00:42;13.50;67.10
41628;DHT22;27321;50.816;6.054;2023-04-21T19:03:43;13.50;67.60
41628;DHT22;27321;50.816;6.054;2023-04-21T19:06:44;13.50;67.50
41628;DHT22;27321;50.816;6.054;2023-04-21T19:09:46;13.50;67.30
41628;DHT22;27321;50.816;6.054;2023-04-21T19:12:47;13.40;67.30
41628;DHT22;27321;50.816;6.054;2023-04-21T19:15:48;13.50;67.80
41628;DHT22;27321;50.816;6.054;2023-04-21T19:18:49;13.60;67.80
41628;DHT22;27321;50.816;6.054;2023-04-21T19:21:51;13.60;68.10
41628;DHT22;27321;50.816;6.054;2023-04-21T19:24:52;13.50;68.00
41628;DHT22;27321;50.816;6.054;2023-04-21T19:27:56;13.40;66.80
41628;DHT22;27321;50.816;6.054;2023-04-21T19:30:57;13.30;65.50
41628;DHT22;27321;50.816;6.054;2023-04-21T19:33:58;13.30;64.50
41628;DHT22;27321;50.816;6.054;2023-04-21T19:36:59;13.30;64.20
41628;DHT22;27321;50.816;6.054;2023-04-21T19:40:01;13.30;63.50
41628;DHT22;27321;50.816;6.054;2023-04-21T19:43:02;13.40;63.70
41628;DHT22;27321;50.816;6.054;2023-04-21T19:46:04;13.50;63.90
41628;DHT22;27321;50.816;6.054;2023-04-21T19:49:05;13.50;64.30
41628;DHT22;27321;50.816;6.054;2023-04-21T19:52:06;13.60;64.10
41628;DHT22;27321;50.816;6.054;2023-04-21T19:55:07;13.60;63.40
41628;DHT22;27321;50.816;6.054;2023-04-21T19:58:08;13.60;63.70
41628;DHT22;27321;50.816;6.054;2023-04-21T20:01:09;13.60;64.20
41628;DHT22;27321;50.816;6.054;2023-04-21T20:04:10;13.60;64.50
41628;DHT22;27321;50.816;6.054;2023-04-21T20:07:11;13.70;63.50